地図

経路データ

SID SEASON NUMBER BASIN SUBBASIN NAME ISO_TIME NATURE LAT LON WMO_WIND WMO_PRES WMO_AGENCY TRACK_TYPE DIST2LAND LANDFALL IFLAG USA_AGENCY USA_ATCF_ID USA_LAT USA_LON USA_RECORD USA_STATUS USA_WIND USA_PRES USA_SSHS USA_R34_NE USA_R34_SE USA_R34_SW USA_R34_NW USA_R50_NE USA_R50_SE USA_R50_SW USA_R50_NW USA_R64_NE USA_R64_SE USA_R64_SW USA_R64_NW USA_POCI USA_ROCI USA_RMW USA_EYE TOKYO_LAT TOKYO_LON TOKYO_GRADE TOKYO_WIND TOKYO_PRES TOKYO_R50_DIR TOKYO_R50_LONG TOKYO_R50_SHORT TOKYO_R30_DIR TOKYO_R30_LONG TOKYO_R30_SHORT TOKYO_LAND CMA_LAT CMA_LON CMA_CAT CMA_WIND CMA_PRES HKO_LAT HKO_LON HKO_CAT HKO_WIND HKO_PRES NEWDELHI_LAT NEWDELHI_LON NEWDELHI_GRADE NEWDELHI_WIND NEWDELHI_PRES NEWDELHI_CI NEWDELHI_DP NEWDELHI_POCI REUNION_LAT REUNION_LON REUNION_TYPE REUNION_WIND REUNION_PRES REUNION_TNUM REUNION_CI REUNION_RMW REUNION_R34_NE REUNION_R34_SE REUNION_R34_SW REUNION_R34_NW REUNION_R50_NE REUNION_R50_SE REUNION_R50_SW REUNION_R50_NW REUNION_R64_NE REUNION_R64_SE REUNION_R64_SW REUNION_R64_NW BOM_LAT BOM_LON BOM_TYPE BOM_WIND BOM_PRES BOM_TNUM BOM_CI BOM_RMW BOM_R34_NE BOM_R34_SE BOM_R34_SW BOM_R34_NW BOM_R50_NE BOM_R50_SE BOM_R50_SW BOM_R50_NW BOM_R64_NE BOM_R64_SE BOM_R64_SW BOM_R64_NW BOM_ROCI BOM_POCI BOM_EYE BOM_POS_METHOD BOM_PRES_METHOD NADI_LAT NADI_LON NADI_CAT NADI_WIND NADI_PRES WELLINGTON_LAT WELLINGTON_LON WELLINGTON_WIND WELLINGTON_PRES DS824_LAT DS824_LON DS824_STAGE DS824_WIND DS824_PRES TD9636_LAT TD9636_LON TD9636_STAGE TD9636_WIND TD9636_PRES TD9635_LAT TD9635_LON TD9635_WIND TD9635_PRES TD9635_ROCI NEUMANN_LAT NEUMANN_LON NEUMANN_CLASS NEUMANN_WIND NEUMANN_PRES MLC_LAT MLC_LON MLC_CLASS MLC_WIND MLC_PRES USA_GUST BOM_GUST BOM_GUST_PER REUNION_GUST REUNION_GUST_PER USA_SEAHGT USA_SEARAD_NE USA_SEARAD_SE USA_SEARAD_SW USA_SEARAD_NW STORM_SPEED STORM_DIR
1985260N13336 1985 89 NA NA GLORIA 1985-09-16 12:00:00 TS 13.3000 -23.6000 25 1009 hurdat_atl main 676 676 O_____________ hurdat_atl AL091985 13.3000 -23.6000 TD 25 1009 -1 13 294
1985260N13336 1985 89 NA NA GLORIA 1985-09-16 15:00:00 TS 13.5679 -24.2122 main 733 733 P_____________ AL091985 13.5679 -24.2122 TD 25 1008 -1 13 293
1985260N13336 1985 89 NA NA GLORIA 1985-09-16 18:00:00 TS 13.8000 -24.8000 25 1008 hurdat_atl main 793 793 O_____________ hurdat_atl AL091985 13.8000 -24.8000 TD 25 1008 -1 12 290
1985260N13336 1985 89 NA NA GLORIA 1985-09-16 21:00:00 TS 13.9723 -25.3502 main 855 855 P_____________ AL091985 13.9723 -25.3502 TD 27 1008 -1 11 286
1985260N13336 1985 89 NA NA GLORIA 1985-09-17 00:00:00 TS 14.1000 -25.9000 30 1008 hurdat_atl main 907 907 O_____________ hurdat_atl AL091985 14.1000 -25.9000 TD 30 1008 -1 11 282
1985260N13336 1985 89 NA NA GLORIA 1985-09-17 03:00:00 TS 14.1999 -26.4927 main 971 971 P_____________ AL091985 14.1999 -26.4927 TD 30 1008 -1 12 280
1985260N13336 1985 89 NA NA GLORIA 1985-09-17 06:00:00 TS 14.3000 -27.1000 30 1008 hurdat_atl main 1034 1034 O_____________ hurdat_atl AL091985 14.3000 -27.1000 TD 30 1008 -1 12 282
1985260N13336 1985 89 NA NA GLORIA 1985-09-17 09:00:00 TS 14.4573 -27.6924 main 1098 1098 P_____________ AL091985 14.4573 -27.6924 TD 32 1007 -1 12 284
1985260N13336 1985 89 NA NA GLORIA 1985-09-17 12:00:00 TS 14.6000 -28.3000 35 1007 hurdat_atl main 1162 1162 O_____________ hurdat_atl AL091985 14.6000 -28.3000 TS 35 1007 0 12 280
1985260N13336 1985 89 NA NA GLORIA 1985-09-17 15:00:00 TS 14.6568 -28.8828 main 1226 1226 P_____________ AL091985 14.6568 -28.8828 TS 35 1007 0 13 275
1985260N13336 1985 89 NA NA GLORIA 1985-09-17 18:00:00 TS 14.7000 -29.6000 35 1007 hurdat_atl main 1301 1301 O_____________ hurdat_atl AL091985 14.7000 -29.6000 TS 35 1007 0 17 275
1985260N13336 1985 89 NA NA GLORIA 1985-09-17 21:00:00 TS 14.8002 -30.5899 main 1409 1409 P_____________ AL091985 14.8002 -30.5899 TS 35 1006 0 20 276
1985260N13336 1985 89 NA NA GLORIA 1985-09-18 00:00:00 TS 14.9000 -31.7000 35 1006 hurdat_atl main 1527 1527 O_____________ hurdat_atl AL091985 14.9000 -31.7000 TS 35 1006 0 21 274
1985260N13336 1985 89 NA NA GLORIA 1985-09-18 03:00:00 TS 14.9570 -32.7502 main 1645 1645 P_____________ AL091985 14.9570 -32.7502 TS 35 1006 0 20 273
1985260N13336 1985 89 NA NA GLORIA 1985-09-18 06:00:00 TS 15.0000 -33.8000 35 1006 hurdat_atl main 1752 1752 O_____________ hurdat_atl AL091985 15.0000 -33.8000 TS 35 1006 0 20 272
1985260N13336 1985 89 NA NA GLORIA 1985-09-18 09:00:00 TS 15.0344 -34.8428 main 1860 1860 P_____________ AL091985 15.0344 -34.8428 TS 35 1006 0 20 273
1985260N13336 1985 89 NA NA GLORIA 1985-09-18 12:00:00 TS 15.1000 -35.9000 35 1006 hurdat_atl main 1978 1978 O_____________ hurdat_atl AL091985 15.1000 -35.9000 TS 35 1006 0 21 275
1985260N13336 1985 89 NA NA GLORIA 1985-09-18 15:00:00 TS 15.2278 -37.0523 main 1976 1914 P_____________ AL091985 15.2278 -37.0523 TS 32 1006 -1 21 278
1985260N13336 1985 89 NA NA GLORIA 1985-09-18 18:00:00 TS 15.4000 -38.1000 30 1006 hurdat_atl main 1906 1863 O_____________ hurdat_atl AL091985 15.4000 -38.1000 TD 30 1006 -1 18 282
1985260N13336 1985 89 NA NA GLORIA 1985-09-18 21:00:00 TS 15.5916 -38.8601 main 1855 1823 P_____________ AL091985 15.5916 -38.8601 TD 30 1006 -1 14 287
1985260N13336 1985 89 NA NA GLORIA 1985-09-19 00:00:00 TS 15.8000 -39.5000 30 1006 hurdat_atl main 1823 1785 O_____________ hurdat_atl AL091985 15.8000 -39.5000 TD 30 1006 -1 14 287
1985260N13336 1985 89 NA NA GLORIA 1985-09-19 03:00:00 TS 15.9998 -40.2076 main 1785 1751 P_____________ AL091985 15.9998 -40.2076 TD 30 1006 -1 14 287
1985260N13336 1985 89 NA NA GLORIA 1985-09-19 06:00:00 TS 16.2000 -40.9000 30 1006 hurdat_atl main 1751 1725 O_____________ hurdat_atl AL091985 16.2000 -40.9000 TD 30 1006 -1 13 287
1985260N13336 1985 89 NA NA GLORIA 1985-09-19 09:00:00 TS 16.3995 -41.5352 main 1727 1698 P_____________ AL091985 16.3995 -41.5352 TD 30 1006 -1 13 288
1985260N13336 1985 89 NA NA GLORIA 1985-09-19 12:00:00 TS 16.6000 -42.2000 30 1006 hurdat_atl main 1698 1667 O_____________ hurdat_atl AL091985 16.6000 -42.2000 TD 30 1006 -1 15 286
1985260N13336 1985 89 NA NA GLORIA 1985-09-19 15:00:00 TS 16.8152 -42.9999 main 1667 1632 P_____________ AL091985 16.8152 -42.9999 TD 30 1006 -1 16 285
1985260N13336 1985 89 NA NA GLORIA 1985-09-19 18:00:00 TS 17.0000 -43.8000 30 1006 hurdat_atl main 1632 1604 O_____________ hurdat_atl AL091985 17.0000 -43.8000 TD 30 1006 -1 14 282
1985260N13336 1985 89 NA NA GLORIA 1985-09-19 21:00:00 TS 17.1143 -44.4503 main 1598 1572 P_____________ AL091985 17.1143 -44.4503 TD 32 1005 -1 13 279
1985260N13336 1985 89 NA NA GLORIA 1985-09-20 00:00:00 TS 17.2000 -45.1000 35 1005 hurdat_atl main 1572 1544 O_____________ hurdat_atl AL091985 17.2000 -45.1000 TS 35 1005 0 14 278
1985260N13336 1985 89 NA NA GLORIA 1985-09-20 03:00:00 TS 17.3076 -45.8924 main 1539 1509 P_____________ AL091985 17.3076 -45.8924 TS 37 1004 0 15 277
1985260N13336 1985 89 NA NA GLORIA 1985-09-20 06:00:00 TS 17.4000 -46.7000 40 1004 hurdat_atl main 1509 1481 O_____________ hurdat_atl AL091985 17.4000 -46.7000 TS 40 1004 0 14 276
1985260N13336 1985 89 NA NA GLORIA 1985-09-20 09:00:00 TS 17.4568 -47.3927 main 1487 1458 P_____________ AL091985 17.4568 -47.3927 TS 42 1003 0 13 274
1985260N13336 1985 89 NA NA GLORIA 1985-09-20 12:00:00 TS 17.5000 -48.1000 45 1003 hurdat_atl main 1458 1421 O_____________ hurdat_atl AL091985 17.5000 -48.1000 TS 45 1003 0 15 274
1985260N13336 1985 89 NA NA GLORIA 1985-09-20 15:00:00 TS 17.5502 -48.9500 main 1426 1394 P_____________ AL091985 17.5502 -48.9500 TS 45 1002 0 16 274
1985260N13336 1985 89 NA NA GLORIA 1985-09-20 18:00:00 TS 17.6000 -49.8000 45 1002 hurdat_atl main 1394 1373 O_____________ hurdat_atl AL091985 17.6000 -49.8000 TS 45 1002 0 15 274
1985260N13336 1985 89 NA NA GLORIA 1985-09-20 21:00:00 TS 17.6568 -50.5075 main 1376 1315 P_____________ AL091985 17.6568 -50.5075 TS 47 1001 0 13 274
1985260N13336 1985 89 NA NA GLORIA 1985-09-21 00:00:00 TS 17.7000 -51.2000 50 1001 hurdat_atl main 1315 1246 O_____________ hurdat_atl AL091985 17.7000 -51.2000 TS 50 1001 0 14 272
1985260N13336 1985 89 NA NA GLORIA 1985-09-21 03:00:00 TS 17.7075 -52.0001 main 1246 1181 P_____________ AL091985 17.7075 -52.0001 TS 52 1001 0 15 270
1985260N13336 1985 89 NA NA GLORIA 1985-09-21 06:00:00 TS 17.7000 -52.8000 55 1001 hurdat_atl main 1181 1125 O_____________ hurdat_atl AL091985 17.7000 -52.8000 TS 55 1001 0 15 270
1985260N13336 1985 89 NA NA GLORIA 1985-09-21 09:00:00 TS 17.6998 -53.5375 main 1125 1072 P_____________ AL091985 17.6998 -53.5375 TS 57 1000 0 13 270
1985260N13336 1985 89 NA NA GLORIA 1985-09-21 12:00:00 TS 17.7000 -54.2000 60 1000 hurdat_atl main 1072 1036 O_____________ hurdat_atl AL091985 17.7000 -54.2000 TS 60 1000 0 12 270
1985260N13336 1985 89 NA NA GLORIA 1985-09-21 15:00:00 TS 17.6922 -54.7800 main 1029 995 P_____________ AL091985 17.6922 -54.7800 TS 62 1000 0 10 270
1985260N13336 1985 89 NA NA GLORIA 1985-09-21 18:00:00 TS 17.7000 -55.3000 65 1000 hurdat_atl main 995 963 O_____________ hurdat_atl AL091985 17.7000 -55.3000 HU 65 1000 1 10 273
1985260N13336 1985 89 NA NA GLORIA 1985-09-21 21:00:00 TS 17.7499 -55.8224 main 963 942 P_____________ AL091985 17.7499 -55.8224 HU 65 1000 1 10 276
1985260N13336 1985 89 NA NA GLORIA 1985-09-22 00:00:00 TS 17.8000 -56.3000 65 1000 hurdat_atl main 942 920 O_____________ hurdat_atl AL091985 17.8000 -56.3000 HU 65 1000 1 8 274
1985260N13336 1985 89 NA NA GLORIA 1985-09-22 03:00:00 TS 17.8072 -56.6926 main 920 899 P_____________ AL091985 17.8072 -56.6926 HU 67 998 1 8 270
1985260N13336 1985 89 NA NA GLORIA 1985-09-22 06:00:00 TS 17.8000 -57.1000 70 996 hurdat_atl main 899 847 O_____________ hurdat_atl AL091985 17.8000 -57.1000 HU 70 996 1 9 267
1985260N13336 1985 89 NA NA GLORIA 1985-09-22 09:00:00 TS 17.7552 -57.6503 main 836 783 P_____________ AL091985 17.7552 -57.6503 HU 70 994 1 10 270
1985260N13336 1985 89 NA NA GLORIA 1985-09-22 12:00:00 TS 17.8000 -58.2000 70 992 hurdat_atl main 783 740 O_____________ hurdat_atl AL091985 17.8000 -58.2000 HU 70 992 1 9 288
1985260N13336 1985 89 NA NA GLORIA 1985-09-22 15:00:00 TS 18.0546 -58.5925 main 739 696 P_____________ AL091985 18.0546 -58.5925 HU 67 991 1 10 308
1985260N13336 1985 89 NA NA GLORIA 1985-09-22 18:00:00 TS 18.4000 -59.0000 65 990 hurdat_atl main 696 643 O_____________ hurdat_atl AL091985 18.4000 -59.0000 HU 65 990 1 11 305
1985260N13336 1985 89 NA NA GLORIA 1985-09-22 21:00:00 TS 18.6925 -59.5627 main 633 572 P_____________ AL091985 18.6925 -59.5627 HU 65 990 1 13 298
1985260N13336 1985 89 NA NA GLORIA 1985-09-23 00:00:00 TS 19.0000 -60.2000 65 990 hurdat_atl main 572 515 O_____________ hurdat_atl AL091985 19.0000 -60.2000 HU 65 990 1 14 298
1985260N13336 1985 89 NA NA GLORIA 1985-09-23 03:00:00 TS 19.3423 -60.8352 main 515 454 P_____________ AL091985 19.3423 -60.8352 HU 65 989 1 14 300
1985260N13336 1985 89 NA NA GLORIA 1985-09-23 06:00:00 TS 19.7000 -61.5000 65 989 hurdat_atl main 454 399 O_____________ hurdat_atl AL091985 19.7000 -61.5000 HU 65 989 1 15 299
1985260N13336 1985 89 NA NA GLORIA 1985-09-23 09:00:00 TS 20.0574 -62.2001 main 404 360 P_____________ AL091985 20.0574 -62.2001 HU 65 988 1 15 298
1985260N13336 1985 89 NA NA GLORIA 1985-09-23 12:00:00 TS 20.4000 -62.9000 65 987 hurdat_atl main 360 337 O_____________ hurdat_atl AL091985 20.4000 -62.9000 HU 65 987 1 14 297
1985260N13336 1985 89 NA NA GLORIA 1985-09-23 15:00:00 TS 20.7147 -63.5578 main 331 320 P_____________ AL091985 20.7147 -63.5578 HU 70 983 1 14 296
1985260N13336 1985 89 NA NA GLORIA 1985-09-23 18:00:00 TS 21.0000 -64.2000 75 980 hurdat_atl main 325 321 O_____________ hurdat_atl AL091985 21.0000 -64.2000 HU 75 980 1 13 295
1985260N13336 1985 89 NA NA GLORIA 1985-09-23 21:00:00 TS 21.2647 -64.8502 main 332 328 P_____________ AL091985 21.2647 -64.8502 HU 85 968 2 13 292
1985260N13336 1985 89 NA NA GLORIA 1985-09-24 00:00:00 TS 21.5000 -65.5000 95 956 hurdat_atl main 346 346 O_____________ hurdat_atl AL091985 21.5000 -65.5000 HU 95 956 2 13 289
1985260N13336 1985 89 NA NA GLORIA 1985-09-24 03:00:00 TS 21.6924 -66.1654 main 369 369 P_____________ AL091985 21.6924 -66.1654 HU 97 954 3 13 288
1985260N13336 1985 89 NA NA GLORIA 1985-09-24 06:00:00 TS 21.9000 -66.8000 100 952 hurdat_atl main 390 375 O_____________ hurdat_atl AL091985 21.9000 -66.8000 HU 100 952 3 12 294
1985260N13336 1985 89 NA NA GLORIA 1985-09-24 09:00:00 TS 22.1772 -67.3652 main 379 374 P_____________ AL091985 22.1772 -67.3652 HU 100 951 3 12 300
1985260N13336 1985 89 NA NA GLORIA 1985-09-24 12:00:00 TS 22.5000 -67.9000 100 950 hurdat_atl main 386 382 O_____________ hurdat_atl AL091985 22.5000 -67.9000 HU 100 950 3 12 302
1985260N13336 1985 89 NA NA GLORIA 1985-09-24 15:00:00 TS 22.8199 -68.4579 main 390 390 P_____________ AL091985 22.8199 -68.4579 HU 102 942 3 12 305
1985260N13336 1985 89 NA NA GLORIA 1985-09-24 18:00:00 TS 23.2000 -69.0000 105 935 hurdat_atl main 414 410 O_____________ hurdat_atl AL091985 23.2000 -69.0000 HU 105 935 3 13 312
1985260N13336 1985 89 NA NA GLORIA 1985-09-24 21:00:00 TS 23.6848 -69.5150 main 450 446 P_____________ AL091985 23.6848 -69.5150 HU 112 927 3 14 318
1985260N13336 1985 89 NA NA GLORIA 1985-09-25 00:00:00 TS 24.2000 -70.0000 120 920 hurdat_atl main 455 455 O_____________ hurdat_atl AL091985 24.2000 -70.0000 HU 120 920 4 13 319
1985260N13336 1985 89 NA NA GLORIA 1985-09-25 03:00:00 TS 24.6497 -70.4432 main 463 463 P_____________ AL091985 24.6497 -70.4432 HU 122 920 4 12 318
1985260N13336 1985 89 NA NA GLORIA 1985-09-25 06:00:00 TS 25.1000 -70.9000 125 920 hurdat_atl main 485 485 O_____________ hurdat_atl AL091985 25.1000 -70.9000 HU 125 920 4 13 317
1985260N13336 1985 89 NA NA GLORIA 1985-09-25 09:00:00 TS 25.6075 -71.4424 main 518 515 P_____________ AL091985 25.6075 -71.4424 HU 120 923 4 14 315
1985260N13336 1985 89 NA NA GLORIA 1985-09-25 12:00:00 TS 26.1000 -72.0000 115 926 hurdat_atl main 557 555 O_____________ hurdat_atl AL091985 26.1000 -72.0000 HU 115 926 4 13 313
1985260N13336 1985 89 NA NA GLORIA 1985-09-25 15:00:00 TS 26.5072 -72.5082 main 567 538 P_____________ AL091985 26.5072 -72.5082 HU 105 929 3 12 312
1985260N13336 1985 89 NA NA GLORIA 1985-09-25 18:00:00 TS 26.9000 -73.0000 95 933 hurdat_atl main 538 511 O_____________ hurdat_atl AL091985 26.9000 -73.0000 HU 95 933 2 12 313
1985260N13336 1985 89 NA NA GLORIA 1985-09-25 21:00:00 TS 27.3273 -73.5005 main 511 499 P_____________ AL091985 27.3273 -73.5005 HU 90 936 2 13 315
1985260N13336 1985 89 NA NA GLORIA 1985-09-26 00:00:00 TS 27.8000 -74.0000 85 940 hurdat_atl main 499 490 O_____________ hurdat_atl AL091985 27.8000 -74.0000 HU 85 940 2 14 318
1985260N13336 1985 89 NA NA GLORIA 1985-09-26 03:00:00 TS 28.3352 -74.5372 main 498 498 P_____________ AL091985 28.3352 -74.5372 HU 82 942 1 14 321
1985260N13336 1985 89 NA NA GLORIA 1985-09-26 06:00:00 TS 28.9000 -75.0000 80 944 hurdat_atl main 517 515 O_____________ hurdat_atl AL091985 28.9000 -75.0000 HU 80 944 1 13 329
1985260N13336 1985 89 NA NA GLORIA 1985-09-26 09:00:00 TS 29.4271 -75.2738 main 515 494 P_____________ AL091985 29.4271 -75.2738 HU 80 945 1 12 338
1985260N13336 1985 89 NA NA GLORIA 1985-09-26 12:00:00 TS 30.0000 -75.5000 80 946 hurdat_atl main 494 417 O_____________ hurdat_atl AL091985 30.0000 -75.5000 HU 80 946 1 13 336
1985260N13336 1985 89 NA NA GLORIA 1985-09-26 15:00:00 TS 30.6478 -75.9010 main 417 325 P_____________ AL091985 30.6478 -75.9010 HU 82 945 1 15 337
1985260N13336 1985 89 NA NA GLORIA 1985-09-26 18:00:00 TS 31.4000 -76.2000 85 944 hurdat_atl main 325 252 O_____________ hurdat_atl AL091985 31.4000 -76.2000 HU 85 944 2 16 351
1985260N13336 1985 89 NA NA GLORIA 1985-09-26 21:00:00 TS 32.2403 -76.1860 main 252 184 P_____________ AL091985 32.2403 -76.1860 HU 87 943 2 18 5
1985260N13336 1985 89 NA NA GLORIA 1985-09-27 00:00:00 TS 33.2000 -76.0000 90 942 hurdat_atl main 173 95 O_____________ hurdat_atl AL091985 33.2000 -76.0000 HU 90 942 2 19 8
1985260N13336 1985 89 NA NA GLORIA 1985-09-27 03:00:00 TS 34.0746 -75.8975 main 86 50 P_____________ AL091985 34.0746 -75.8975 HU 90 942 2 22 9
1985260N13336 1985 89 NA NA GLORIA 1985-09-27 05:30:00 TS 35.2000 -75.6000 90 942 hurdat_atl main 45 28 O_____________ hurdat_atl AL091985 35.2000 -75.6000 L HU 90 942 2 29 13
1985260N13336 1985 89 NA NA GLORIA 1985-09-27 06:00:00 TS 35.5000 -75.5000 90 942 hurdat_atl main 21 8 O_____________ hurdat_atl AL091985 35.5000 -75.5000 HU 90 942 2 32 14
1985260N13336 1985 89 NA NA GLORIA 1985-09-27 09:00:00 TS 37.0195 -75.0227 main 80 44 P_____________ AL091985 37.0195 -75.0227 HU 87 946 2 30 15
1985260N13336 1985 89 NA NA GLORIA 1985-09-27 12:00:00 TS 38.4000 -74.5000 85 951 hurdat_atl main 52 33 O_____________ hurdat_atl AL091985 38.4000 -74.5000 HU 85 951 2 32 21
1985260N13336 1985 89 NA NA GLORIA 1985-09-27 15:00:00 TS 40.0029 -73.5942 main 35 20 P_____________ AL091985 40.0029 -73.5942 HU 77 958 1 36 23
1985260N13336 1985 89 NA NA GLORIA 1985-09-27 16:00:00 TS 40.6000 -73.3000 75 961 hurdat_atl main 11 0 O_____________ hurdat_atl AL091985 40.6000 -73.3000 L HU 75 961 1 40 18
1985260N13336 1985 89 NA NA GLORIA 1985-09-27 18:00:00 TS 41.9000 -72.8000 75 964 hurdat_atl main 0 0 O_____________ hurdat_atl AL091985 41.9000 -72.8000 HU 75 964 1 42 22
1985260N13336 1985 89 NA NA GLORIA 1985-09-27 21:00:00 TS 43.8024 -71.5207 main 0 0 P_____________ AL091985 43.8024 -71.5207 HU 62 975 0 41 29
1985260N13336 1985 89 NA NA GLORIA 1985-09-28 00:00:00 ET 45.5000 -70.0000 50 986 hurdat_atl main 0 0 O_____________ hurdat_atl AL091985 45.5000 -70.0000 EX 50 986 -4 36 30
1985260N13336 1985 89 NA NA GLORIA 1985-09-28 03:00:00 ET 46.9592 -68.9257 main 0 0 P_____________ AL091985 46.9592 -68.9257 EX 50 986 -4 30 30
1985260N13336 1985 89 NA NA GLORIA 1985-09-28 06:00:00 ET 48.1000 -67.8000 50 987 hurdat_atl main 0 0 O_____________ hurdat_atl AL091985 48.1000 -67.8000 EX 50 987 -4 26 43
1985260N13336 1985 89 NA NA GLORIA 1985-09-28 09:00:00 ET 48.8981 -66.2254 main 0 0 P_____________ AL091985 48.8981 -66.2254 EX 50 987 -4 26 57
1985260N13336 1985 89 NA NA GLORIA 1985-09-28 12:00:00 ET 49.5000 -64.5000 50 987 hurdat_atl main 39 0 O_____________ hurdat_atl AL091985 49.5000 -64.5000 EX 50 987 -4 25 59
1985260N13336 1985 89 NA NA GLORIA 1985-09-28 15:00:00 ET 50.1987 -62.8786 main 11 0 P_____________ AL091985 50.1987 -62.8786 EX 50 987 -4 25 58
1985260N13336 1985 89 NA NA GLORIA 1985-09-28 18:00:00 ET 50.8000 -61.2000 50 987 hurdat_atl main 0 0 O_____________ hurdat_atl AL091985 50.8000 -61.2000 EX 50 987 -4 24 66
1985260N13336 1985 89 NA NA GLORIA 1985-09-28 21:00:00 ET 51.2008 -59.3738 main 0 0 P_____________ AL091985 51.2008 -59.3738 EX 50 988 -4 24 73
1985260N13336 1985 89 NA NA GLORIA 1985-09-29 00:00:00 ET 51.5000 -57.5000 50 990 hurdat_atl main 0 0 O_____________ hurdat_atl AL091985 51.5000 -57.5000 EX 50 990 -4 24 75
1985260N13336 1985 89 NA NA GLORIA 1985-09-29 03:00:00 ET 51.8267 -55.6568 main 23 23 P_____________ AL091985 51.8267 -55.6568 EX 50 990 -4 24 75
1985260N13336 1985 89 NA NA GLORIA 1985-09-29 06:00:00 ET 52.1000 -53.8000 50 990 hurdat_atl main 126 126 O_____________ hurdat_atl AL091985 52.1000 -53.8000 EX 50 990 -4 24 79
1985260N13336 1985 89 NA NA GLORIA 1985-09-29 09:00:00 ET 52.2888 -51.8087 main 256 256 P_____________ AL091985 52.2888 -51.8087 EX 50 990 -4 23 83
1985260N13336 1985 89 NA NA GLORIA 1985-09-29 12:00:00 ET 52.4000 -50.0000 50 990 hurdat_atl main 377 377 O_____________ hurdat_atl AL091985 52.4000 -50.0000 EX 50 990 -4 19 85
1985260N13336 1985 89 NA NA GLORIA 1985-09-29 15:00:00 ET 52.4675 -48.6511 main 465 465 P_____________ AL091985 52.4675 -48.6511 EX 50 990 -4 15 86
1985260N13336 1985 89 NA NA GLORIA 1985-09-29 18:00:00 ET 52.5000 -47.5000 50 990 hurdat_atl main 545 545 O_____________ hurdat_atl AL091985 52.5000 -47.5000 EX 50 990 -4 15 88
1985260N13336 1985 89 NA NA GLORIA 1985-09-29 21:00:00 ET 52.5062 -46.2494 main 620 620 P_____________ AL091985 52.5062 -46.2494 EX 50 990 -4 15 90
1985260N13336 1985 89 NA NA GLORIA 1985-09-30 00:00:00 ET 52.5000 -45.0000 50 990 hurdat_atl main 690 690 O_____________ hurdat_atl AL091985 52.5000 -45.0000 EX 50 990 -4 15 90
1985260N13336 1985 89 NA NA GLORIA 1985-09-30 03:00:00 ET 52.4987 -43.7500 main 769 763 P_____________ AL091985 52.4987 -43.7500 EX 50 990 -4 15 90
1985260N13336 1985 89 NA NA GLORIA 1985-09-30 06:00:00 ET 52.5000 -42.5000 50 990 hurdat_atl main 840 840 O_____________ hurdat_atl AL091985 52.5000 -42.5000 EX 50 990 -4 15 91
1985260N13336 1985 89 NA NA GLORIA 1985-09-30 09:00:00 ET 52.4696 -41.2178 main 849 849 P_____________ AL091985 52.4696 -41.2178 EX 50 990 -4 15 90
1985260N13336 1985 89 NA NA GLORIA 1985-09-30 12:00:00 ET 52.5000 -40.0000 50 990 hurdat_atl main 862 856 O_____________ hurdat_atl AL091985 52.5000 -40.0000 EX 50 990 -4 14 82
1985260N13336 1985 89 NA NA GLORIA 1985-09-30 15:00:00 ET 52.6684 -38.9137 main 858 853 P_____________ AL091985 52.6684 -38.9137 EX 50 990 -4 13 73
1985260N13336 1985 89 NA NA GLORIA 1985-09-30 18:00:00 ET 52.9000 -37.9000 50 990 hurdat_atl main 857 854 O_____________ hurdat_atl AL091985 52.9000 -37.9000 EX 50 990 -4 13 71
1985260N13336 1985 89 NA NA GLORIA 1985-09-30 21:00:00 ET 53.0917 -36.8836 main 861 859 P_____________ AL091985 53.0917 -36.8836 EX 50 990 -4 13 72
1985260N13336 1985 89 NA NA GLORIA 1985-10-01 00:00:00 ET 53.3000 -35.9000 50 990 hurdat_atl main 869 869 O_____________ hurdat_atl AL091985 53.3000 -35.9000 EX 50 990 -4 12 69
1985260N13336 1985 89 NA NA GLORIA 1985-10-01 03:00:00 ET 53.5264 -34.9481 main 882 876 P_____________ AL091985 53.5264 -34.9481 EX 50 990 -4 12 66
1985260N13336 1985 89 NA NA GLORIA 1985-10-01 06:00:00 ET 53.8000 -34.0000 50 990 hurdat_atl main 885 884 O_____________ hurdat_atl AL091985 53.8000 -34.0000 EX 50 990 -4 13 63
1985260N13336 1985 89 NA NA GLORIA 1985-10-01 09:00:00 ET 54.1119 -33.0054 main 897 893 P_____________ AL091985 54.1119 -33.0054 EX 50 990 -4 14 59
1985260N13336 1985 89 NA NA GLORIA 1985-10-01 12:00:00 ET 54.5000 -32.0000 50 990 hurdat_atl main 905 905 O_____________ hurdat_atl AL091985 54.5000 -32.0000 EX 50 990 -4 15 55
1985260N13336 1985 89 NA NA GLORIA 1985-10-01 15:00:00 ET 54.9707 -30.9267 main 915 912 P_____________ AL091985 54.9707 -30.9267 EX 50 990 -4 15 49
1985260N13336 1985 89 NA NA GLORIA 1985-10-01 18:00:00 ET 55.5000 -30.0000 50 990 hurdat_atl main 921 913 O_____________ hurdat_atl AL091985 55.5000 -30.0000 EX 50 990 -4 14 39
1985260N13336 1985 89 NA NA GLORIA 1985-10-01 21:00:00 ET 56.0468 -29.3996 main 918 867 P_____________ AL091985 56.0468 -29.3996 EX 50 975 -4 12 27
1985260N13336 1985 89 NA NA GLORIA 1985-10-02 00:00:00 ET 56.6000 -29.0000 50 960 hurdat_atl main 867 O_____________ hurdat_atl AL091985 56.6000 -29.0000 EX 50 960 -4 12 22

IBTrACS Databaseについて

本データベースは、米国NOAAが公開する1842年以降の世界の熱帯低気圧のベストトラックデータアーカイブInternational Best Track Archive for Climate Stewardship (IBTrACS)を、ウェブで閲覧しやすい形式に変換したものです。

最終更新日:2021-12-01